Hauptseite
METAR-TAF:

METAR-TAF

Flughäfen :

Coatesville, Pennsylvania, Vereinigte Staaten

Breite: 39-58-44N, Länge: 075-51-56W, Höhe: 201 m

Beobachtung

Neuester Wetterbericht von vor 32 Minuten, um 02:35 UTC
Wind 5 kt aus Ost/Südost
Temperatur 15°C
Luftfeuchtigkeit 88%
Luftdruck 1024 hPa
Sichtweite: 16.1 km
Geschlossene Wolkendecke in der Höhe von 2100 ft

METAR: KMQS 250235Z AUTO 12005KT 10SM OVC021 15/13 A3025 RMK AO2

Zeit: 23:07 (03:07 UTC)


TAF: fehlend

Wetterbeobachtungen und Prognosen von mehr als 4000 Flughäfen (METAR und TAF Bericht).

Die verfügbaren Stationen werden durch gelbe und rote Markierungen auf der Karte dargestellt.

Führen Sie die Maus auf sie, um den Namen der Station zu sehen.

Darauf klicken, um die Beobachtung von Wetterbeobachtungen und Prognosen zu sehen.

Um die Karte zu ändern : klicken Sie auf den grünen Tasten mit einem schwarzen Kreuz Zum Vergrößern, auf den grünen Button mit einem Gedankenstrich zu verkleinern, oder auf die grünen Pfeile für benachbarte Karten.


METAR-TAF: